createdAt,value
2018-05-24T00:01:20.233Z,19.20
2018-05-24T00:03:49.187Z,19.20
2018-05-24T00:06:18.493Z,19.30
2018-05-24T00:08:47.593Z,19.30
2018-05-24T00:11:16.734Z,19.30
2018-05-24T00:13:46.496Z,19.30
2018-05-24T00:16:16.253Z,19.20
2018-05-24T00:18:44.992Z,19.30
2018-05-24T00:21:13.833Z,19.30
2018-05-24T00:23:43.993Z,19.10
2018-05-24T00:26:13.013Z,19.10
2018-05-24T00:28:42.733Z,19.10
2018-05-24T00:31:12.533Z,19.10
2018-05-24T00:33:42.332Z,19.10
2018-05-24T00:36:11.112Z,19.10
2018-05-24T00:38:40.271Z,19.20
2018-05-24T00:41:09.772Z,19.20
2018-05-24T00:43:39.792Z,19.10
2018-05-24T00:46:08.576Z,19.10
2018-05-24T00:48:37.792Z,19.10
2018-05-24T00:51:07.451Z,19.10
2018-05-24T00:53:35.871Z,19.00
2018-05-24T00:56:05.771Z,18.90
2018-05-24T00:58:34.811Z,18.80
2018-05-24T01:01:04.013Z,18.80
2018-05-24T01:03:33.272Z,18.80
2018-05-24T01:06:02.513Z,18.80
2018-05-24T01:08:31.651Z,18.70
2018-05-24T01:11:00.995Z,18.70
2018-05-24T01:13:30.512Z,18.70
2018-05-24T01:15:59.532Z,18.70
2018-05-24T01:18:29.313Z,18.70
2018-05-24T01:20:58.974Z,18.70
2018-05-24T01:23:27.872Z,18.70
2018-05-24T01:25:58.312Z,18.80
2018-05-24T01:28:27.571Z,18.70
2018-05-24T01:30:57.932Z,18.70
2018-05-24T01:33:27.592Z,18.70
2018-05-24T01:35:56.252Z,18.70
2018-05-24T01:38:25.314Z,18.70
2018-05-24T01:40:54.318Z,18.70
2018-05-24T01:43:23.832Z,18.70
2018-05-24T01:45:52.812Z,18.70
2018-05-24T01:48:21.552Z,18.70
2018-05-24T01:50:51.414Z,18.70
2018-05-24T01:53:19.872Z,18.70
2018-05-24T01:55:48.519Z,18.60
2018-05-24T01:58:18.013Z,18.60
2018-05-24T02:00:46.353Z,18.50
2018-05-24T02:03:15.273Z,18.40
2018-05-24T02:05:44.233Z,18.40
2018-05-24T02:08:13.072Z,18.30
2018-05-24T02:10:42.493Z,18.20
2018-05-24T02:13:12.253Z,18.20
2018-05-24T02:15:41.273Z,18.20
2018-05-24T02:18:09.812Z,18.20
2018-05-24T02:20:39.492Z,18.20
2018-05-24T02:23:08.132Z,18.20
2018-05-24T02:25:36.813Z,18.20
2018-05-24T02:28:05.772Z,18.20
2018-05-24T02:30:34.458Z,18.10
2018-05-24T02:33:04.212Z,18.20
2018-05-24T02:35:33.221Z,18.10
2018-05-24T02:38:02.253Z,18.20
2018-05-24T02:40:31.193Z,18.20
2018-05-24T02:43:00.953Z,18.00
2018-05-24T02:45:30.193Z,18.00
2018-05-24T02:47:59.957Z,18.00
2018-05-24T02:50:29.453Z,18.10
2018-05-24T02:52:58.194Z,18.10
2018-05-24T02:55:27.174Z,18.00
2018-05-24T02:57:56.435Z,18.00
2018-05-24T03:00:25.433Z,18.00
2018-05-24T03:02:54.233Z,18.00
2018-05-24T03:05:23.672Z,18.00
2018-05-24T03:07:53.193Z,18.10
2018-05-24T03:10:21.993Z,18.10
2018-05-24T03:12:51.173Z,18.10
2018-05-24T03:15:19.832Z,18.10
2018-05-24T03:17:48.873Z,18.10
2018-05-24T03:20:18.393Z,18.10
2018-05-24T03:22:47.513Z,18.10
2018-05-24T03:25:16.644Z,18.10
2018-05-24T03:27:45.832Z,18.10
2018-05-24T03:30:14.633Z,18.00
2018-05-24T03:32:44.593Z,18.00
2018-05-24T03:35:13.727Z,18.00
2018-05-24T03:37:42.613Z,18.10
2018-05-24T03:40:11.482Z,18.20
2018-05-24T03:42:41.112Z,18.20
2018-05-24T03:45:10.233Z,18.30
2018-05-24T03:47:38.738Z,18.40
2018-05-24T03:50:07.392Z,18.40
2018-05-24T03:52:37.032Z,18.40
2018-05-24T03:55:05.832Z,18.40
2018-05-24T03:57:35.213Z,18.30
2018-05-24T04:00:15.594Z,18.30
2018-05-24T04:02:56.133Z,18.30
2018-05-24T04:05:25.114Z,18.30
2018-05-24T04:07:53.912Z,18.30
2018-05-24T04:10:23.195Z,18.30
2018-05-24T04:12:53.612Z,18.30
2018-05-24T04:15:23.113Z,18.30
2018-05-24T04:17:52.452Z,18.30
2018-05-24T04:20:21.373Z,18.30
2018-05-24T04:22:51.073Z,18.30
2018-05-24T04:25:19.192Z,18.20
2018-05-24T04:27:48.993Z,18.20
2018-05-24T04:30:17.432Z,18.20
2018-05-24T04:32:47.092Z,18.10
2018-05-24T04:35:16.112Z,18.10
2018-05-24T04:37:45.193Z,18.10
2018-05-24T04:40:14.593Z,18.10
2018-05-24T04:42:43.352Z,18.10
2018-05-24T04:45:12.573Z,18.10
2018-05-24T04:47:41.652Z,18.20
2018-05-24T04:50:10.537Z,18.20
2018-05-24T04:52:40.192Z,18.20
2018-05-24T04:55:09.433Z,18.10
2018-05-24T04:57:38.175Z,18.10
2018-05-24T05:00:07.874Z,18.20
2018-05-24T05:02:37.333Z,18.20
2018-05-24T05:05:06.193Z,18.20
2018-05-24T05:07:35.053Z,18.20
2018-05-24T05:10:04.393Z,18.20
2018-05-24T05:12:33.573Z,18.20
2018-05-24T05:15:02.792Z,18.10
2018-05-24T05:17:32.232Z,17.90
2018-05-24T05:20:01.292Z,17.90
2018-05-24T05:22:30.392Z,17.90
2018-05-24T05:24:59.013Z,17.80
2018-05-24T05:27:28.232Z,17.90
2018-05-24T05:29:57.532Z,17.90
2018-05-24T05:32:27.034Z,18.00
2018-05-24T05:34:56.532Z,18.00
2018-05-24T05:37:26.293Z,18.10
2018-05-24T05:39:55.113Z,18.00
2018-05-24T05:42:24.274Z,18.00
2018-05-24T05:44:53.628Z,18.00
2018-05-24T05:47:23.032Z,18.00
2018-05-24T05:49:52.553Z,18.10
2018-05-24T05:52:21.512Z,18.20
2018-05-24T05:54:50.572Z,18.30
2018-05-24T05:57:20.813Z,18.30
2018-05-24T05:59:50.045Z,18.40
2018-05-24T06:02:21.080Z,18.50
2018-05-24T06:04:50.613Z,18.60
2018-05-24T06:07:21.913Z,18.60
2018-05-24T06:09:50.893Z,18.60
2018-05-24T06:12:19.893Z,18.70
2018-05-24T06:14:49.312Z,18.90
2018-05-24T06:17:18.113Z,18.80
2018-05-24T06:19:46.874Z,18.90
2018-05-24T06:22:16.077Z,19.00
2018-05-24T06:24:45.115Z,19.00
2018-05-24T06:27:14.455Z,19.10
2018-05-24T06:29:43.877Z,19.10
2018-05-24T06:32:13.116Z,19.30
2018-05-24T06:34:42.193Z,19.30
2018-05-24T06:37:11.757Z,19.40
2018-05-24T06:39:40.633Z,19.30
2018-05-24T06:42:09.174Z,19.20
2018-05-24T06:44:38.852Z,19.20
2018-05-24T06:47:08.113Z,19.20
2018-05-24T06:49:38.622Z,19.30
2018-05-24T06:52:07.215Z,19.30
2018-05-24T06:54:36.652Z,19.40
2018-05-24T06:57:05.592Z,19.40
2018-05-24T06:59:34.592Z,19.50
2018-05-24T07:02:04.392Z,19.50
2018-05-24T07:04:33.853Z,19.60
2018-05-24T07:07:03.621Z,19.70
2018-05-24T07:09:32.872Z,19.80
2018-05-24T07:12:02.312Z,19.90
2018-05-24T07:14:33.386Z,20.00
2018-05-24T07:17:02.387Z,20.10
2018-05-24T07:19:31.439Z,20.20
2018-05-24T07:22:00.900Z,20.10
2018-05-24T07:24:30.195Z,20.00
2018-05-24T07:26:58.906Z,20.00
2018-05-24T07:29:28.395Z,20.00
2018-05-24T07:31:57.914Z,20.00
2018-05-24T07:34:27.155Z,20.10
2018-05-24T07:36:55.915Z,20.30
2018-05-24T07:39:24.923Z,20.30
2018-05-24T07:41:53.875Z,20.30
2018-05-24T07:44:23.126Z,20.40
2018-05-24T07:46:51.338Z,20.50
2018-05-24T07:49:21.050Z,20.50
2018-05-24T07:51:49.969Z,20.50
2018-05-24T07:54:18.990Z,20.50
2018-05-24T07:56:47.318Z,20.50
2018-05-24T07:59:16.287Z,20.40
2018-05-24T08:01:45.112Z,20.60
2018-05-24T08:04:14.047Z,20.70
2018-05-24T08:06:42.798Z,20.80
2018-05-24T08:09:13.050Z,21.00
2018-05-24T08:11:42.331Z,21.00
2018-05-24T08:14:11.036Z,21.20
2018-05-24T08:16:39.730Z,21.20
2018-05-24T08:19:08.774Z,21.30
2018-05-24T08:21:37.993Z,21.30
2018-05-24T08:24:08.052Z,21.40
2018-05-24T08:26:37.052Z,21.50
2018-05-24T08:29:06.038Z,21.60
2018-05-24T08:31:36.330Z,21.70
2018-05-24T08:34:05.290Z,21.60
2018-05-24T08:36:35.050Z,21.60
2018-05-24T08:39:03.931Z,21.70
2018-05-24T08:41:33.314Z,21.80
2018-05-24T08:44:03.130Z,21.90
2018-05-24T08:46:32.330Z,22.00
2018-05-24T08:49:01.736Z,22.00
2018-05-24T08:51:30.290Z,21.90
2018-05-24T08:53:59.289Z,22.00
2018-05-24T08:56:28.370Z,22.10
2018-05-24T08:58:57.274Z,22.20
2018-05-24T09:01:25.942Z,22.30
2018-05-24T09:03:55.775Z,22.50
2018-05-24T09:06:24.764Z,22.60
2018-05-24T09:08:54.011Z,22.50
2018-05-24T09:11:23.214Z,22.60
2018-05-24T09:13:52.284Z,22.50
2018-05-24T09:16:21.005Z,22.50
2018-05-24T09:18:50.524Z,22.50
2018-05-24T09:21:19.488Z,22.50
2018-05-24T09:23:48.480Z,22.50
2018-05-24T09:26:17.224Z,22.40
2018-05-24T09:28:46.183Z,22.50
2018-05-24T09:31:15.205Z,22.60
2018-05-24T09:33:45.003Z,23.00
2018-05-24T09:36:14.425Z,22.90
2018-05-24T09:38:42.964Z,22.90
2018-05-24T09:41:11.949Z,23.00
2018-05-24T09:43:41.288Z,23.00
2018-05-24T09:46:09.929Z,23.00
2018-05-24T09:48:38.969Z,23.20
2018-05-24T09:51:08.458Z,23.50
2018-05-24T09:53:37.779Z,23.40
2018-05-24T09:56:06.157Z,23.30
2018-05-24T09:58:34.900Z,23.40
2018-05-24T10:01:03.397Z,23.60
2018-05-24T10:03:34.019Z,23.70
2018-05-24T10:06:03.196Z,23.70
2018-05-24T10:08:32.276Z,23.90
2018-05-24T10:11:01.919Z,24.00
2018-05-24T10:13:31.417Z,24.10
2018-05-24T10:16:00.917Z,24.30
2018-05-24T10:18:29.776Z,24.30
2018-05-24T10:20:58.917Z,24.30
2018-05-24T10:23:28.231Z,24.20
2018-05-24T10:25:57.917Z,24.00
2018-05-24T10:28:27.180Z,24.00
2018-05-24T10:30:56.697Z,24.00
2018-05-24T10:33:26.176Z,24.10
2018-05-24T10:35:55.737Z,24.10
2018-05-24T10:38:24.178Z,24.40
2018-05-24T10:40:52.997Z,24.70
2018-05-24T10:43:22.159Z,25.00
2018-05-24T10:45:51.398Z,25.00
2018-05-24T10:48:20.397Z,25.10
2018-05-24T10:50:50.107Z,25.20
2018-05-24T10:53:18.886Z,25.40
2018-05-24T10:55:48.400Z,25.30
2018-05-24T10:58:18.161Z,25.20
2018-05-24T11:00:47.679Z,25.30
2018-05-24T11:03:16.693Z,25.30
2018-05-24T11:05:46.440Z,25.30
2018-05-24T11:08:15.901Z,25.40
2018-05-24T11:10:45.302Z,25.40
2018-05-24T11:13:14.701Z,25.60
2018-05-24T11:15:44.721Z,25.90
2018-05-24T11:18:14.716Z,25.90
2018-05-24T11:20:43.755Z,25.90
2018-05-24T11:23:13.195Z,25.80
2018-05-24T11:25:42.976Z,25.90
2018-05-24T11:28:12.767Z,25.90
2018-05-24T11:30:42.519Z,25.90
2018-05-24T11:33:12.277Z,25.90
2018-05-24T11:35:42.044Z,25.80
2018-05-24T11:38:11.017Z,25.90
2018-05-24T11:40:40.517Z,25.80
2018-05-24T11:43:10.051Z,25.90
2018-05-24T11:45:39.663Z,26.10
2018-05-24T11:48:08.976Z,26.20
2018-05-24T11:50:38.036Z,26.50
2018-05-24T11:53:07.276Z,26.40
2018-05-24T11:55:36.797Z,26.60
2018-05-24T11:58:05.778Z,26.60
2018-05-24T12:00:34.742Z,26.70
2018-05-24T12:03:03.757Z,27.00
2018-05-24T12:05:33.536Z,27.30
2018-05-24T12:08:03.295Z,27.20
2018-05-24T12:10:31.815Z,27.20
2018-05-24T12:13:00.495Z,27.30
2018-05-24T12:15:30.115Z,27.20
2018-05-24T12:17:58.997Z,27.40
2018-05-24T12:20:28.075Z,27.60
2018-05-24T12:22:56.626Z,27.50
2018-05-24T12:25:26.496Z,27.60
2018-05-24T12:27:55.755Z,27.80
2018-05-24T12:30:26.035Z,27.90
2018-05-24T12:32:55.415Z,28.00
2018-05-24T12:35:24.805Z,28.00
2018-05-24T12:37:53.257Z,27.90
2018-05-24T12:40:21.997Z,28.00
2018-05-24T12:42:50.977Z,28.10
2018-05-24T12:45:19.457Z,28.20
2018-05-24T12:47:48.057Z,28.20
2018-05-24T12:50:17.717Z,28.20
2018-05-24T12:52:47.259Z,28.30
2018-05-24T12:55:16.718Z,28.50
2018-05-24T12:57:45.766Z,28.50
2018-05-24T13:00:14.479Z,28.60
2018-05-24T13:02:43.438Z,28.80
2018-05-24T13:05:12.178Z,29.00
2018-05-24T13:07:41.180Z,29.00
2018-05-24T13:10:10.158Z,29.10
2018-05-24T13:12:38.657Z,29.30
2018-05-24T13:15:08.697Z,29.50
2018-05-24T13:17:38.419Z,29.50
2018-05-24T13:20:07.418Z,29.50
2018-05-24T13:22:36.919Z,29.70
2018-05-24T13:25:05.598Z,29.90
2018-05-24T13:27:35.166Z,29.80
2018-05-24T13:30:04.918Z,30.00
2018-05-24T13:32:33.418Z,30.30
2018-05-24T13:35:02.809Z,30.40
2018-05-24T13:37:32.425Z,30.40
2018-05-24T13:40:02.486Z,30.50
2018-05-24T13:42:31.701Z,30.50
2018-05-24T13:45:01.672Z,30.70
2018-05-24T13:47:30.956Z,30.70
2018-05-24T13:49:59.956Z,30.90
2018-05-24T13:52:29.972Z,31.00
2018-05-24T13:54:58.694Z,31.10
2018-05-24T13:57:38.791Z,31.00
2018-05-24T14:00:08.494Z,31.10
2018-05-24T14:02:37.710Z,31.10
2018-05-24T14:05:06.774Z,30.80
2018-05-24T14:07:35.433Z,30.60
2018-05-24T14:10:04.174Z,30.50
2018-05-24T14:12:33.175Z,30.60
2018-05-24T14:15:03.454Z,30.80
2018-05-24T14:17:32.376Z,30.80
2018-05-24T14:20:01.934Z,30.90
2018-05-24T14:22:30.675Z,30.80
2018-05-24T14:25:00.484Z,30.80
2018-05-24T14:27:29.461Z,30.80
2018-05-24T14:29:59.970Z,30.70
2018-05-24T14:32:28.434Z,30.60
2018-05-24T14:34:57.225Z,30.70
2018-05-24T14:37:26.433Z,30.70
2018-05-24T14:39:55.419Z,30.80
2018-05-24T14:42:24.155Z,30.70
2018-05-24T14:44:53.166Z,30.50
2018-05-24T14:47:22.447Z,30.40
2018-05-24T14:49:51.237Z,30.10
2018-05-24T14:52:20.637Z,29.90
2018-05-24T14:54:49.901Z,29.80
2018-05-24T14:57:18.901Z,29.60
2018-05-24T14:59:48.403Z,29.50
2018-05-24T15:02:17.660Z,29.40
2018-05-24T15:04:46.400Z,29.30
2018-05-24T15:07:15.652Z,29.20
2018-05-24T15:09:45.401Z,29.00
2018-05-24T15:12:14.941Z,28.80
2018-05-24T15:14:43.901Z,28.60
2018-05-24T15:17:13.402Z,28.60
2018-05-24T15:19:42.840Z,28.60
2018-05-24T15:22:11.638Z,28.60
2018-05-24T15:24:40.116Z,28.40
2018-05-24T15:27:09.115Z,28.40
2018-05-24T15:29:37.595Z,28.30
2018-05-24T15:32:06.855Z,28.10
2018-05-24T15:34:37.116Z,28.00
2018-05-24T15:37:06.276Z,27.90
2018-05-24T15:39:35.376Z,28.00
2018-05-24T15:42:05.275Z,27.90
2018-05-24T15:44:34.877Z,27.80
2018-05-24T15:47:03.856Z,27.80
2018-05-24T15:49:33.375Z,27.60
2018-05-24T15:52:02.178Z,27.50
2018-05-24T15:54:31.611Z,27.30
2018-05-24T15:57:00.995Z,27.20
2018-05-24T15:59:30.115Z,27.20
2018-05-24T16:01:58.955Z,27.20
2018-05-24T16:04:27.835Z,27.10
2018-05-24T16:06:57.624Z,27.10
2018-05-24T16:09:27.615Z,27.10
2018-05-24T16:11:56.102Z,27.00
2018-05-24T16:14:25.658Z,27.00
2018-05-24T16:16:55.398Z,27.00
2018-05-24T16:19:24.098Z,26.90
2018-05-24T16:21:53.916Z,26.90
2018-05-24T16:24:22.904Z,26.80
2018-05-24T16:26:52.117Z,26.80
2018-05-24T16:29:21.357Z,26.60
2018-05-24T16:31:50.337Z,26.50
2018-05-24T16:34:19.760Z,26.50
2018-05-24T16:36:48.477Z,26.50
2018-05-24T16:39:17.657Z,26.50
2018-05-24T16:41:46.576Z,26.60
2018-05-24T16:44:15.816Z,26.60
2018-05-24T16:46:45.077Z,26.60
2018-05-24T16:49:14.858Z,26.60
2018-05-24T16:51:45.212Z,26.30
2018-05-24T16:54:14.626Z,26.50
2018-05-24T16:56:44.650Z,26.50
2018-05-24T16:59:14.177Z,26.60
2018-05-24T17:01:43.163Z,26.50
2018-05-24T17:04:12.638Z,26.50
2018-05-24T17:06:41.377Z,26.50
2018-05-24T17:09:10.177Z,26.50
2018-05-24T17:11:39.397Z,26.40
2018-05-24T17:14:09.137Z,26.50
2018-05-24T17:16:37.958Z,26.50
2018-05-24T17:19:06.859Z,26.50
2018-05-24T17:21:36.357Z,26.40
2018-05-24T17:24:05.618Z,26.30
2018-05-24T17:26:34.817Z,26.30
2018-05-24T17:29:03.657Z,26.30
2018-05-24T17:31:32.637Z,26.30
2018-05-24T17:34:01.456Z,26.30
2018-05-24T17:36:30.937Z,26.20
2018-05-24T17:39:00.838Z,26.00
2018-05-24T17:41:29.836Z,26.00
2018-05-24T17:43:58.976Z,26.00
2018-05-24T17:46:28.276Z,26.00
2018-05-24T17:48:57.177Z,26.00
2018-05-24T17:51:26.075Z,26.00
2018-05-24T17:53:55.315Z,25.90
2018-05-24T17:56:23.920Z,25.80
2018-05-24T17:58:53.060Z,25.80
2018-05-24T18:01:22.556Z,25.70
2018-05-24T18:03:51.836Z,25.80
2018-05-24T18:06:21.057Z,25.70
2018-05-24T18:08:50.077Z,25.70
2018-05-24T18:11:19.617Z,25.70
2018-05-24T18:13:48.376Z,25.60
2018-05-24T18:16:16.817Z,25.50
2018-05-24T18:18:46.018Z,25.50
2018-05-24T18:21:15.146Z,25.30
2018-05-24T18:23:44.399Z,25.20
2018-05-24T18:26:13.019Z,25.10
2018-05-24T18:28:42.517Z,25.00
2018-05-24T18:31:14.275Z,24.90
2018-05-24T18:33:43.617Z,24.70
2018-05-24T18:36:14.320Z,24.70
2018-05-24T18:38:43.099Z,24.70
2018-05-24T18:41:12.817Z,24.70
2018-05-24T18:43:43.385Z,24.60
2018-05-24T18:46:12.377Z,24.50
2018-05-24T18:48:42.257Z,24.50
2018-05-24T18:51:11.216Z,24.40
2018-05-24T18:53:39.877Z,24.40
2018-05-24T18:56:09.932Z,24.30
2018-05-24T18:58:39.258Z,24.30
2018-05-24T19:01:08.637Z,24.20
2018-05-24T19:03:37.897Z,24.10
2018-05-24T19:06:06.658Z,24.00
2018-05-24T19:08:36.156Z,24.00
2018-05-24T19:11:06.238Z,23.80
2018-05-24T19:13:36.417Z,23.80
2018-05-24T19:16:05.937Z,23.70
2018-05-24T19:18:35.178Z,23.70
2018-05-24T19:21:04.357Z,23.70
2018-05-24T19:23:34.197Z,23.60
2018-05-24T19:26:03.936Z,23.50
2018-05-24T19:28:33.160Z,23.30
2018-05-24T19:31:02.897Z,23.20
2018-05-24T19:33:32.197Z,23.10
2018-05-24T19:36:01.957Z,23.10
2018-05-24T19:38:31.217Z,23.10
2018-05-24T19:41:00.841Z,23.00
2018-05-24T19:43:29.796Z,23.00
2018-05-24T19:45:58.697Z,23.10
2018-05-24T19:48:27.277Z,23.10
2018-05-24T19:50:56.457Z,23.10
2018-05-24T19:53:26.477Z,23.10
2018-05-24T19:55:56.173Z,23.00
2018-05-24T19:58:24.517Z,22.90
2018-05-24T20:00:53.757Z,22.80
2018-05-24T20:03:23.057Z,22.70
2018-05-24T20:05:52.257Z,22.60
2018-05-24T20:08:21.698Z,22.50
2018-05-24T20:10:50.420Z,22.60
2018-05-24T20:13:19.697Z,22.50
2018-05-24T20:15:49.697Z,22.40
2018-05-24T20:18:19.722Z,22.40
2018-05-24T20:20:48.445Z,22.40
2018-05-24T20:23:17.037Z,22.40
2018-05-24T20:25:45.798Z,22.30
2018-05-24T20:28:15.019Z,22.30
2018-05-24T20:30:43.757Z,22.30
2018-05-24T20:33:12.896Z,22.20
2018-05-24T20:35:41.398Z,22.30
2018-05-24T20:38:11.357Z,22.20
2018-05-24T20:40:40.317Z,22.10
2018-05-24T20:43:09.758Z,22.10
2018-05-24T20:45:39.636Z,22.10
2018-05-24T20:48:09.136Z,22.10
2018-05-24T20:50:37.755Z,22.10
2018-05-24T20:53:07.037Z,22.10
2018-05-24T20:55:36.136Z,22.00
2018-05-24T20:58:05.917Z,22.00
2018-05-24T21:00:35.476Z,21.90
2018-05-24T21:03:04.656Z,21.90
2018-05-24T21:05:33.935Z,21.90
2018-05-24T21:08:02.916Z,21.80
2018-05-24T21:10:32.916Z,21.80
2018-05-24T21:13:01.916Z,21.70
2018-05-24T21:15:31.216Z,21.70
2018-05-24T21:18:00.435Z,21.60
2018-05-24T21:20:29.495Z,21.60
2018-05-24T21:22:58.656Z,21.60
2018-05-24T21:25:27.657Z,21.50
2018-05-24T21:27:57.536Z,21.60
2018-05-24T21:30:27.180Z,21.60
2018-05-24T21:32:56.857Z,21.60
2018-05-24T21:35:26.057Z,21.60
2018-05-24T21:37:55.975Z,21.60
2018-05-24T21:40:24.957Z,21.60
2018-05-24T21:42:54.696Z,21.70
2018-05-24T21:45:24.211Z,21.70
2018-05-24T21:47:54.416Z,21.70
2018-05-24T21:50:23.975Z,21.70
2018-05-24T21:52:52.976Z,21.70
2018-05-24T21:55:22.236Z,21.70
2018-05-24T21:57:51.756Z,21.70
2018-05-24T22:00:21.238Z,21.60
2018-05-24T22:02:51.776Z,21.50
2018-05-24T22:05:21.517Z,21.50
2018-05-24T22:07:51.057Z,21.50
2018-05-24T22:10:20.277Z,21.50
2018-05-24T22:12:49.858Z,21.50
2018-05-24T22:15:19.298Z,21.50
2018-05-24T22:17:48.661Z,21.50
2018-05-24T22:20:17.857Z,21.30
2018-05-24T22:22:47.738Z,21.10
2018-05-24T22:25:16.796Z,21.00
2018-05-24T22:27:46.037Z,20.90
2018-05-24T22:30:14.637Z,20.90
2018-05-24T22:32:44.396Z,20.70
2018-05-24T22:35:13.156Z,20.70
2018-05-24T22:37:42.377Z,20.80
2018-05-24T22:40:11.824Z,20.80
2018-05-24T22:42:41.517Z,20.80
2018-05-24T22:45:10.623Z,20.80
2018-05-24T22:47:39.916Z,20.80
2018-05-24T22:50:09.556Z,20.80
2018-05-24T22:52:38.816Z,20.80
2018-05-24T22:55:07.736Z,20.80
2018-05-24T22:57:37.059Z,20.80
2018-05-24T23:00:06.499Z,20.80
2018-05-24T23:02:35.096Z,20.70
2018-05-24T23:05:03.413Z,20.70
2018-05-24T23:07:33.016Z,20.60
2018-05-24T23:10:02.516Z,20.70
2018-05-24T23:12:31.337Z,20.60
2018-05-24T23:15:00.336Z,20.60
2018-05-24T23:17:30.017Z,20.50
2018-05-24T23:19:59.597Z,20.50
2018-05-24T23:22:39.696Z,20.50
2018-05-24T23:25:08.776Z,20.40
2018-05-24T23:27:39.237Z,20.40
2018-05-24T23:30:08.576Z,20.50
2018-05-24T23:32:38.056Z,20.50
2018-05-24T23:35:07.816Z,20.50
2018-05-24T23:37:37.074Z,20.50
2018-05-24T23:40:07.336Z,20.50
2018-05-24T23:42:36.576Z,20.50
2018-05-24T23:45:05.657Z,20.40
2018-05-24T23:47:35.117Z,20.40
2018-05-24T23:50:03.857Z,20.40
2018-05-24T23:52:33.576Z,20.40
2018-05-24T23:55:02.820Z,20.40
2018-05-24T23:57:32.376Z,20.50
